Time;durP1;ratioP1;P1;durP2;ratioP2;P2;SDS_P1;SDS_P2;PMS_P1;PMS_P2;Temp;Humidity;BMP_temperature;BMP_pressure;BME280_temperature;BME280_humidity;BME280_pressure;Samples;Min_cycle;Max_cycle;Signal;HPM_P1;HPM_P2
2023/07/23 00:01:30;;;;;;;12.77;6.10;;;;;;;;;;5034906;28;20017;-74
2023/07/23 00:03:56;;;;;;;12.32;5.47;;;;;;;;;;5034599;28;20021;-74
2023/07/23 00:06:22;;;;;;;9.02;4.82;;;;;;;;;;5034560;28;20030;-74
2023/07/23 00:08:48;;;;;;;9.02;4.82;;;;;;;;;;5034419;28;20034;-74
2023/07/23 00:11:14;;;;;;;7.97;4.80;;;;;;;;;;5034450;28;20557;-74
2023/07/23 00:13:40;;;;;;;10.85;5.40;;;;;;;;;;5034405;28;20025;-74
2023/07/23 00:16:06;;;;;;;11.07;5.18;;;;;;;;;;5034299;28;20025;-74
2023/07/23 00:18:32;;;;;;;8.68;5.40;;;;;;;;;;5034362;28;20080;-74
2023/07/23 00:20:58;;;;;;;10.80;5.60;;;;;;;;;;5034189;28;20026;-74
2023/07/23 00:23:24;;;;;;;10.80;5.13;;;;;;;;;;5034185;28;20029;-74
2023/07/23 00:25:50;;;;;;;10.65;5.75;;;;;;;;;;5033231;28;20472;-74
2023/07/23 00:28:16;;;;;;;10.95;5.75;;;;;;;;;;5034027;28;20034;-74
2023/07/23 00:30:42;;;;;;;8.80;5.72;;;;;;;;;;5034075;28;20030;-74
2023/07/23 00:33:08;;;;;;;8.63;5.65;;;;;;;;;;5034052;28;20474;-74
2023/07/23 00:35:35;;;;;;;9.68;5.45;;;;;;;;;;5034093;28;20070;-74
2023/07/23 00:38:00;;;;;;;10.35;5.25;;;;;;;;;;5034239;28;20021;-74
2023/07/23 00:40:26;;;;;;;9.93;5.85;;;;;;;;;;5022654;28;20373;-74
2023/07/23 00:42:52;;;;;;;9.65;5.53;;;;;;;;;;5014083;28;20033;-74
2023/07/23 00:45:19;;;;;;;10.23;5.25;;;;;;;;;;5014001;28;20124;-74
2023/07/23 00:47:46;;;;;;;10.20;5.85;;;;;;;;;;5014162;28;20088;-74
2023/07/23 00:50:17;;;;;;;7.75;5.13;;;;;;;;;;5013928;28;20499;-74
2023/07/23 00:52:43;;;;;;;9.05;5.25;;;;;;;;;;5013879;28;20377;-74
2023/07/23 00:55:09;;;;;;;10.38;5.50;;;;;;;;;;5013859;28;20021;-74
2023/07/23 00:57:36;;;;;;;8.85;4.80;;;;;;;;;;5013739;28;20029;-74
2023/07/23 01:00:04;;;;;;;10.35;5.55;;;;;;;;;;5013810;28;20034;-74
2023/07/23 01:02:30;;;;;;;11.23;4.97;;;;;;;;;;5013965;28;20022;-74
2023/07/23 01:04:56;;;;;;;10.88;5.22;;;;;;;;;;5013734;28;20022;-74
2023/07/23 01:07:24;;;;;;;10.65;5.32;;;;;;;;;;5013542;28;20125;-74
2023/07/23 01:09:50;;;;;;;11.95;5.72;;;;;;;;;;5013555;28;20378;-74
2023/07/23 01:12:17;;;;;;;11.15;5.13;;;;;;;;;;5013575;28;20477;-74
2023/07/23 01:14:43;;;;;;;9.73;5.13;;;;;;;;;;5013496;28;20030;-74
2023/07/23 01:17:10;;;;;;;10.00;5.32;;;;;;;;;;5013468;28;20373;-74
2023/07/23 01:19:37;;;;;;;9.20;4.85;;;;;;;;;;5013406;28;20022;-74
2023/07/23 01:22:05;;;;;;;8.40;4.82;;;;;;;;;;5013344;28;20029;-74
2023/07/23 01:24:34;;;;;;;11.85;5.25;;;;;;;;;;5013333;28;20026;-74
2023/07/23 01:27:00;;;;;;;9.70;5.22;;;;;;;;;;5012455;28;20081;-74
2023/07/23 01:29:26;;;;;;;11.23;5.55;;;;;;;;;;5013216;28;20389;-74
2023/07/23 01:31:52;;;;;;;10.02;5.25;;;;;;;;;;5013151;28;20446;-74
2023/07/23 01:34:19;;;;;;;9.85;5.15;;;;;;;;;;5013206;28;20520;-74
2023/07/23 01:36:45;;;;;;;8.90;5.55;;;;;;;;;;5013107;28;20437;-74
2023/07/23 01:39:13;;;;;;;9.32;5.50;;;;;;;;;;5012386;28;20108;-74
2023/07/23 01:41:39;;;;;;;10.80;5.20;;;;;;;;;;5013150;28;20022;-74
2023/07/23 01:44:05;;;;;;;10.95;4.68;;;;;;;;;;5012972;28;20053;-74
2023/07/23 01:46:31;;;;;;;9.85;4.55;;;;;;;;;;5012947;28;20383;-74
2023/07/23 01:48:57;;;;;;;9.30;5.20;;;;;;;;;;5012850;28;20113;-74
2023/07/23 01:51:23;;;;;;;9.52;5.22;;;;;;;;;;5012927;28;20026;-74
2023/07/23 01:53:49;;;;;;;9.60;5.15;;;;;;;;;;5012947;28;20457;-74
2023/07/23 01:56:15;;;;;;;7.45;4.85;;;;;;;;;;5012804;28;20033;-74
2023/07/23 01:58:41;;;;;;;9.85;5.32;;;;;;;;;;5012853;28;20030;-74
2023/07/23 02:01:08;;;;;;;10.30;5.10;;;;;;;;;;5012660;28;20026;-74
2023/07/23 02:03:34;;;;;;;9.25;5.97;;;;;;;;;;5013057;28;20105;-74
2023/07/23 02:06:01;;;;;;;7.82;5.28;;;;;;;;;;5012703;28;20105;-74
2023/07/23 02:08:27;;;;;;;9.65;5.65;;;;;;;;;;5012551;28;20383;-74
2023/07/23 02:11:03;;;;;;;8.02;4.82;;;;;;;;;;5012665;28;20030;-74
2023/07/23 02:13:29;;;;;;;11.52;5.88;;;;;;;;;;5012592;28;20025;-74
2023/07/23 02:15:55;;;;;;;9.52;5.28;;;;;;;;;;5012628;28;20469;-74
2023/07/23 02:18:21;;;;;;;9.20;5.30;;;;;;;;;;5012823;28;20033;-74
2023/07/23 02:20:47;;;;;;;9.95;5.45;;;;;;;;;;5012623;28;20155;-74
2023/07/23 02:23:15;;;;;;;10.57;4.88;;;;;;;;;;5012486;28;20034;-74
2023/07/23 02:25:43;;;;;;;9.43;5.57;;;;;;;;;;5012269;28;20053;-74
2023/07/23 02:28:10;;;;;;;9.80;4.93;;;;;;;;;;5012533;28;20432;-74
2023/07/23 02:30:36;;;;;;;10.50;6.38;;;;;;;;;;5012752;28;20022;-74
2023/07/23 02:33:03;;;;;;;9.40;5.10;;;;;;;;;;5012451;28;20048;-74
2023/07/23 02:35:29;;;;;;;10.90;5.65;;;;;;;;;;5012767;28;20445;-74
2023/07/23 02:37:55;;;;;;;9.18;5.63;;;;;;;;;;5012388;28;20034;-74
2023/07/23 02:40:21;;;;;;;10.00;5.32;;;;;;;;;;5012344;28;20113;-74
2023/07/23 02:42:50;;;;;;;11.18;6.10;;;;;;;;;;5012352;28;20084;-74
2023/07/23 02:45:16;;;;;;;8.63;5.25;;;;;;;;;;5012318;28;20105;-74
2023/07/23 02:47:42;;;;;;;13.50;5.88;;;;;;;;;;5012227;28;20030;-74
2023/07/23 02:50:08;;;;;;;11.07;5.60;;;;;;;;;;5014823;28;20080;-74
2023/07/23 02:52:34;;;;;;;10.38;5.57;;;;;;;;;;5016208;28;20488;-74
2023/07/23 02:55:00;;;;;;;11.50;5.55;;;;;;;;;;5016024;28;20030;-74
2023/07/23 02:57:26;;;;;;;8.95;5.10;;;;;;;;;;5016047;28;20071;-74
2023/07/23 02:59:52;;;;;;;10.23;5.13;;;;;;;;;;5016005;28;20080;-74
2023/07/23 03:02:19;;;;;;;10.07;5.60;;;;;;;;;;5015962;28;20045;-74
2023/07/23 03:04:45;;;;;;;10.15;5.45;;;;;;;;;;5016218;28;20361;-74
2023/07/23 03:07:11;;;;;;;11.52;5.40;;;;;;;;;;5015789;28;20488;-74
2023/07/23 03:09:37;;;;;;;12.93;6.47;;;;;;;;;;5015990;28;20108;-74
2023/07/23 03:12:04;;;;;;;12.38;6.22;;;;;;;;;;5015829;28;20064;-74
2023/07/23 03:14:30;;;;;;;9.68;6.10;;;;;;;;;;5015845;28;20014;-74
2023/07/23 03:16:56;;;;;;;12.48;5.45;;;;;;;;;;5015753;28;20623;-74
2023/07/23 03:19:22;;;;;;;12.45;5.82;;;;;;;;;;5015645;28;20164;-74
2023/07/23 03:21:48;;;;;;;11.13;5.50;;;;;;;;;;5015451;28;20022;-74
2023/07/23 03:24:14;;;;;;;11.18;5.93;;;;;;;;;;5015599;28;20041;-73
2023/07/23 03:26:40;;;;;;;11.32;5.63;;;;;;;;;;5015076;28;20057;-73
2023/07/23 03:29:06;;;;;;;12.05;5.82;;;;;;;;;;5015482;28;20037;-73
2023/07/23 03:31:32;;;;;;;12.07;5.95;;;;;;;;;;5015418;28;20026;-73
2023/07/23 03:33:58;;;;;;;10.32;5.82;;;;;;;;;;5015493;28;20049;-73
2023/07/23 03:36:24;;;;;;;11.40;5.90;;;;;;;;;;5015458;28;20061;-73
2023/07/23 03:38:50;;;;;;;11.48;5.75;;;;;;;;;;5015224;28;20034;-73
2023/07/23 03:41:17;;;;;;;9.07;5.78;;;;;;;;;;5015222;28;20361;-73
2023/07/23 03:43:43;;;;;;;11.35;6.22;;;;;;;;;;5015101;28;20113;-73
2023/07/23 03:46:09;;;;;;;12.25;6.70;;;;;;;;;;5015050;28;20097;-73
2023/07/23 03:48:34;;;;;;;9.77;5.80;;;;;;;;;;5015016;28;20136;-73
2023/07/23 03:51:00;;;;;;;9.20;5.20;;;;;;;;;;5015052;28;20448;-73
2023/07/23 03:53:26;;;;;;;11.10;5.80;;;;;;;;;;5014972;28;20026;-73
2023/07/23 03:55:52;;;;;;;9.07;5.28;;;;;;;;;;5014885;28;20372;-73
2023/07/23 03:58:19;;;;;;;10.40;5.25;;;;;;;;;;5014852;28;20034;-73
2023/07/23 04:00:45;;;;;;;9.93;5.40;;;;;;;;;;5014080;28;20037;-73
2023/07/23 04:03:11;;;;;;;9.07;5.35;;;;;;;;;;5014738;28;20029;-73
2023/07/23 04:05:37;;;;;;;7.65;4.55;;;;;;;;;;5014486;28;20022;-73
2023/07/23 04:08:03;;;;;;;8.48;4.28;;;;;;;;;;5014380;28;20042;-73
2023/07/23 04:10:29;;;;;;;9.55;5.47;;;;;;;;;;5014591;28;20472;-73
2023/07/23 04:12:55;;;;;;;12.05;5.38;;;;;;;;;;5014728;28;20575;-73
2023/07/23 04:15:21;;;;;;;8.27;5.07;;;;;;;;;;5014897;28;20018;-73
2023/07/23 04:17:47;;;;;;;8.30;4.90;;;;;;;;;;5014490;28;20036;-73
2023/07/23 04:20:13;;;;;;;9.30;5.25;;;;;;;;;;5014456;28;20105;-73
2023/07/23 04:22:39;;;;;;;9.75;5.57;;;;;;;;;;5014455;28;20033;-73
2023/07/23 04:25:06;;;;;;;9.05;5.15;;;;;;;;;;5014256;28;20432;-73
2023/07/23 04:27:32;;;;;;;8.15;5.60;;;;;;;;;;5013534;28;20078;-73
2023/07/23 04:29:58;;;;;;;9.32;5.45;;;;;;;;;;5014311;28;20057;-73
2023/07/23 04:32:24;;;;;;;10.82;6.00;;;;;;;;;;5014278;28;20700;-73
2023/07/23 04:34:50;;;;;;;7.70;5.22;;;;;;;;;;5014181;28;20030;-73
2023/07/23 04:37:22;;;;;;;8.50;5.32;;;;;;;;;;5014184;28;20049;-73
2023/07/23 04:39:48;;;;;;;12.48;5.82;;;;;;;;;;5014213;28;20029;-73
2023/07/23 04:42:14;;;;;;;6.90;4.38;;;;;;;;;;5013993;28;20022;-73
2023/07/23 04:44:40;;;;;;;9.50;4.90;;;;;;;;;;5014106;28;20416;-73
2023/07/23 04:47:06;;;;;;;9.25;5.07;;;;;;;;;;5013936;28;20030;-73
2023/07/23 04:49:32;;;;;;;9.55;5.38;;;;;;;;;;5013930;28;20029;-73
2023/07/23 04:51:58;;;;;;;8.73;4.78;;;;;;;;;;5013972;28;20026;-73
2023/07/23 04:54:24;;;;;;;8.73;5.50;;;;;;;;;;5013892;28;20160;-73
2023/07/23 04:56:50;;;;;;;8.40;4.68;;;;;;;;;;5014179;28;20022;-73
2023/07/23 04:59:16;;;;;;;7.43;4.75;;;;;;;;;;5013754;28;20026;-72
2023/07/23 05:01:42;;;;;;;11.85;6.07;;;;;;;;;;5013756;28;20715;-73
2023/07/23 05:04:10;;;;;;;11.00;4.72;;;;;;;;;;5013747;28;20032;-73
2023/07/23 05:06:36;;;;;;;9.55;5.38;;;;;;;;;;5013911;28;20461;-73
2023/07/23 05:09:02;;;;;;;8.80;5.20;;;;;;;;;;5013550;28;20038;-73
2023/07/23 05:11:28;;;;;;;8.85;5.25;;;;;;;;;;5013834;28;20018;-73
2023/07/23 05:13:54;;;;;;;9.23;5.80;;;;;;;;;;4998189;28;20045;-73
2023/07/23 05:16:20;;;;;;;8.18;5.30;;;;;;;;;;4993873;28;20034;-73
2023/07/23 05:18:46;;;;;;;9.05;5.63;;;;;;;;;;4993770;28;20447;-73
2023/07/23 05:21:12;;;;;;;10.18;5.40;;;;;;;;;;4993750;28;20105;-73
2023/07/23 05:23:38;;;;;;;10.20;5.45;;;;;;;;;;4993675;28;20026;-73
2023/07/23 05:26:04;;;;;;;8.60;5.43;;;;;;;;;;4992373;28;20056;-73
2023/07/23 05:28:30;;;;;;;9.75;5.45;;;;;;;;;;4993343;28;20117;-73
2023/07/23 05:30:58;;;;;;;9.30;5.60;;;;;;;;;;4993478;28;20030;-73
2023/07/23 05:33:24;;;;;;;9.70;5.57;;;;;;;;;;4993715;28;20061;-73
2023/07/23 05:35:50;;;;;;;9.48;5.88;;;;;;;;;;4993874;28;20458;-73
2023/07/23 05:38:16;;;;;;;7.95;5.72;;;;;;;;;;4993535;28;20041;-73
2023/07/23 05:40:42;;;;;;;10.00;5.63;;;;;;;;;;4993471;28;20384;-73
2023/07/23 05:43:12;;;;;;;9.25;5.28;;;;;;;;;;4993463;28;20061;-73
2023/07/23 05:45:38;;;;;;;9.23;5.85;;;;;;;;;;4993528;28;20050;-73
2023/07/23 05:48:04;;;;;;;8.93;5.30;;;;;;;;;;4993257;28;20073;-73
2023/07/23 05:50:30;;;;;;;9.10;5.82;;;;;;;;;;4993327;28;20034;-73
2023/07/23 05:52:56;;;;;;;8.35;5.22;;;;;;;;;;4993303;28;20027;-73
2023/07/23 05:55:22;;;;;;;7.68;4.70;;;;;;;;;;4993244;28;20026;-73
2023/07/23 05:57:48;;;;;;;8.60;5.38;;;;;;;;;;4993476;28;20019;-73
2023/07/23 06:00:14;;;;;;;8.90;5.43;;;;;;;;;;4993205;28;20612;-73
2023/07/23 06:02:40;;;;;;;8.15;5.05;;;;;;;;;;4993168;28;20026;-74
2023/07/23 06:05:06;;;;;;;9.90;5.88;;;;;;;;;;4993407;28;20030;-74
2023/07/23 06:07:32;;;;;;;8.82;6.05;;;;;;;;;;4993013;28;20045;-74
2023/07/23 06:09:59;;;;;;;8.40;5.30;;;;;;;;;;4992956;28;20361;-73
2023/07/23 06:12:27;;;;;;;8.52;5.40;;;;;;;;;;4993015;28;20169;-74
2023/07/23 06:14:53;;;;;;;11.73;5.60;;;;;;;;;;4993353;28;20030;-74
2023/07/23 06:17:19;;;;;;;10.10;5.57;;;;;;;;;;4991692;28;20421;-74
2023/07/23 06:19:45;;;;;;;8.75;5.55;;;;;;;;;;4993253;28;20038;-74
2023/07/23 06:22:12;;;;;;;10.13;5.53;;;;;;;;;;4993392;28;20050;-74
2023/07/23 06:24:38;;;;;;;9.35;5.85;;;;;;;;;;4994899;28;20042;-74
2023/07/23 06:27:04;;;;;;;10.30;6.20;;;;;;;;;;4996800;28;20428;-74
2023/07/23 06:29:30;;;;;;;10.13;5.82;;;;;;;;;;4996805;28;20037;-74
2023/07/23 06:31:57;;;;;;;7.75;5.60;;;;;;;;;;5016087;28;20424;-74
2023/07/23 06:34:23;;;;;;;10.63;6.32;;;;;;;;;;5016476;28;20101;-74
2023/07/23 06:36:49;;;;;;;9.68;6.07;;;;;;;;;;5016152;28;20145;-74
2023/07/23 06:39:15;;;;;;;12.45;6.30;;;;;;;;;;5016305;28;20342;-74
2023/07/23 06:41:41;;;;;;;11.20;6.45;;;;;;;;;;5016396;28;20112;-74
2023/07/23 06:44:07;;;;;;;15.20;6.47;;;;;;;;;;5016387;28;20085;-74
2023/07/23 06:46:33;;;;;;;12.15;7.38;;;;;;;;;;5014801;28;20060;-74
2023/07/23 06:48:59;;;;;;;12.18;6.05;;;;;;;;;;5016179;28;20362;-74
2023/07/23 06:51:25;;;;;;;9.70;7.07;;;;;;;;;;5016321;28;20033;-74
2023/07/23 06:53:51;;;;;;;12.52;6.75;;;;;;;;;;5016083;28;20093;-75
2023/07/23 06:56:19;;;;;;;9.20;6.07;;;;;;;;;;5016089;28;20465;-75
2023/07/23 06:58:46;;;;;;;11.05;6.45;;;;;;;;;;5016248;28;20053;-75
2023/07/23 07:01:12;;;;;;;10.00;6.35;;;;;;;;;;5015985;28;20030;-75
2023/07/23 07:03:38;;;;;;;9.73;6.40;;;;;;;;;;5016264;28;20033;-75
2023/07/23 07:06:04;;;;;;;8.70;6.30;;;;;;;;;;5017312;28;20030;-74
2023/07/23 07:08:30;;;;;;;11.77;6.40;;;;;;;;;;5016516;28;20022;-75
2023/07/23 07:10:59;;;;;;;11.90;6.93;;;;;;;;;;5015892;28;20057;-75
2023/07/23 07:13:26;;;;;;;10.52;6.68;;;;;;;;;;5015856;28;20022;-74
2023/07/23 07:15:52;;;;;;;15.57;7.25;;;;;;;;;;5015647;28;20014;-74
2023/07/23 07:18:18;;;;;;;10.63;6.10;;;;;;;;;;5016041;28;20037;-75
2023/07/23 07:20:44;;;;;;;17.05;7.35;;;;;;;;;;5015604;28;20030;-74
2023/07/23 07:23:10;;;;;;;13.18;7.60;;;;;;;;;;5015708;28;20065;-75
2023/07/23 07:25:36;;;;;;;13.25;7.03;;;;;;;;;;5015412;28;20026;-74
2023/07/23 07:28:02;;;;;;;12.02;7.78;;;;;;;;;;5015474;28;20072;-73
2023/07/23 07:30:28;;;;;;;10.82;7.63;;;;;;;;;;5015830;28;20080;-73
2023/07/23 07:32:54;;;;;;;13.43;8.63;;;;;;;;;;5016238;28;20034;-73
2023/07/23 07:35:20;;;;;;;15.60;10.25;;;;;;;;;;5014858;28;20120;-73
2023/07/23 07:37:47;;;;;;;16.13;10.40;;;;;;;;;;5014931;28;20018;-73
2023/07/23 07:40:14;;;;;;;14.48;9.48;;;;;;;;;;5015123;28;20018;-74
2023/07/23 07:42:41;;;;;;;12.40;9.25;;;;;;;;;;5015323;28;20032;-74
2023/07/23 07:45:07;;;;;;;15.65;9.88;;;;;;;;;;5015031;28;20503;-74
2023/07/23 07:47:33;;;;;;;13.48;9.60;;;;;;;;;;5014992;28;20034;-74
2023/07/23 07:49:59;;;;;;;12.52;9.02;;;;;;;;;;5017063;28;20026;-73
2023/07/23 07:52:25;;;;;;;11.73;8.40;;;;;;;;;;5016905;28;20030;-74
2023/07/23 07:54:52;;;;;;;12.25;8.90;;;;;;;;;;5014934;28;20109;-74
2023/07/23 07:57:18;;;;;;;12.15;8.73;;;;;;;;;;5015274;28;20026;-74
2023/07/23 07:59:44;;;;;;;10.98;8.15;;;;;;;;;;5015402;28;20065;-74
2023/07/23 08:02:10;;;;;;;12.30;8.13;;;;;;;;;;5015070;28;20029;-74
2023/07/23 08:04:37;;;;;;;10.20;8.30;;;;;;;;;;5015580;28;20034;-74
2023/07/23 08:07:03;;;;;;;10.75;8.73;;;;;;;;;;5009269;28;20049;-74
2023/07/23 08:09:29;;;;;;;11.65;8.90;;;;;;;;;;5003581;28;20121;-74
2023/07/23 08:11:55;;;;;;;9.55;7.95;;;;;;;;;;5008090;28;20041;-74
2023/07/23 08:14:21;;;;;;;10.63;8.88;;;;;;;;;;5014576;28;20538;-74
2023/07/23 08:16:52;;;;;;;8.90;7.32;;;;;;;;;;4996648;28;20022;-74
2023/07/23 08:19:18;;;;;;;8.50;6.90;;;;;;;;;;4995305;28;20026;-74
2023/07/23 08:21:44;;;;;;;10.15;6.75;;;;;;;;;;4995003;28;20030;-74
2023/07/23 08:24:10;;;;;;;10.07;6.45;;;;;;;;;;5003040;28;20037;-74
2023/07/23 08:26:38;;;;;;;8.27;6.97;;;;;;;;;;5013305;28;20056;-74
2023/07/23 08:29:06;;;;;;;9.23;5.70;;;;;;;;;;5014238;28;20041;-74
2023/07/23 08:31:33;;;;;;;9.73;6.10;;;;;;;;;;5014317;28;20030;-74
2023/07/23 08:34:02;;;;;;;9.02;6.18;;;;;;;;;;5014185;28;20520;-74
2023/07/23 08:36:29;;;;;;;10.73;6.95;;;;;;;;;;5014489;28;20033;-74
2023/07/23 08:38:55;;;;;;;9.95;6.75;;;;;;;;;;5011374;28;21023;-74
2023/07/23 08:41:40;;;;;;;9.20;7.13;;;;;;;;;;5003859;28;20034;-74
2023/07/23 08:44:09;;;;;;;10.75;8.32;;;;;;;;;;5014059;28;20026;-74
2023/07/23 08:46:41;;;;;;;12.07;9.73;;;;;;;;;;5014203;28;20034;-74
2023/07/23 08:49:09;;;;;;;13.27;11.10;;;;;;;;;;5013966;28;20680;-74
2023/07/23 08:51:41;;;;;;;13.88;11.88;;;;;;;;;;5014215;28;20022;-74
2023/07/23 08:54:08;;;;;;;12.98;10.82;;;;;;;;;;5014211;28;20033;-74
2023/07/23 08:56:35;;;;;;;11.93;9.93;;;;;;;;;;5013683;28;20029;-74
2023/07/23 08:59:02;;;;;;;12.23;9.82;;;;;;;;;;5013428;28;20044;-74
2023/07/23 09:01:29;;;;;;;11.93;10.25;;;;;;;;;;5013548;28;20021;-74
2023/07/23 09:03:55;;;;;;;12.23;10.75;;;;;;;;;;5013659;28;20034;-74
2023/07/23 09:06:21;;;;;;;15.63;12.27;;;;;;;;;;5013669;28;20076;-74
2023/07/23 09:08:47;;;;;;;19.45;12.43;;;;;;;;;;5013593;28;20034;-74
2023/07/23 09:11:13;;;;;;;14.85;13.25;;;;;;;;;;5013649;28;20021;-74
2023/07/23 09:13:39;;;;;;;15.02;12.88;;;;;;;;;;5013563;28;20022;-74
2023/07/23 09:16:05;;;;;;;18.65;14.10;;;;;;;;;;4999472;28;20601;-74
2023/07/23 09:18:32;;;;;;;16.48;14.27;;;;;;;;;;4994030;28;20037;-74
2023/07/23 09:20:58;;;;;;;18.60;14.90;;;;;;;;;;4993831;28;20045;-74
2023/07/23 09:23:28;;;;;;;23.27;14.75;;;;;;;;;;4994174;28;20402;-74
2023/07/23 09:25:54;;;;;;;;;;;;;;;;;;4994131;28;20101;-75
2023/07/23 09:28:23;;;;;;;16.02;13.77;;;;;;;;;;4993699;28;19921;-74
2023/07/23 09:30:52;;;;;;;17.38;14.60;;;;;;;;;;4993611;28;20405;-74
2023/07/23 09:33:18;;;;;;;17.25;14.35;;;;;;;;;;4993644;28;20023;-74
2023/07/23 09:35:44;;;;;;;17.70;14.10;;;;;;;;;;4993532;28;20180;-74
2023/07/23 09:38:12;;;;;;;15.25;12.40;;;;;;;;;;4993547;28;20030;-74
2023/07/23 09:40:39;;;;;;;17.00;13.18;;;;;;;;;;4993681;28;20030;-74
2023/07/23 09:43:06;;;;;;;15.75;13.55;;;;;;;;;;4993595;28;20026;-74
2023/07/23 09:45:36;;;;;;;15.52;12.55;;;;;;;;;;4993465;28;20077;-74
2023/07/23 09:48:02;;;;;;;14.10;11.68;;;;;;;;;;4993200;28;20466;-74
2023/07/23 09:50:29;;;;;;;14.38;12.10;;;;;;;;;;4993284;28;20026;-74
2023/07/23 09:52:56;;;;;;;15.70;13.07;;;;;;;;;;4993328;28;20022;-74
2023/07/23 09:55:22;;;;;;;14.68;12.43;;;;;;;;;;4993326;28;20106;-74
2023/07/23 09:57:50;;;;;;;18.65;12.77;;;;;;;;;;4993148;28;20022;-74
2023/07/23 10:00:16;;;;;;;15.63;13.10;;;;;;;;;;4992573;28;20026;-74
2023/07/23 10:02:43;;;;;;;13.32;11.93;;;;;;;;;;4993129;28;20026;-74
2023/07/23 10:05:10;;;;;;;15.55;12.55;;;;;;;;;;4993063;28;20101;-74
2023/07/23 10:07:38;;;;;;;16.00;13.05;;;;;;;;;;4993273;28;20426;-74
2023/07/23 10:10:05;;;;;;;16.55;13.88;;;;;;;;;;4993046;28;20032;-74
2023/07/23 10:12:31;;;;;;;14.30;11.88;;;;;;;;;;4993168;28;20488;-74
2023/07/23 10:14:57;;;;;;;18.45;13.10;;;;;;;;;;4992858;28;20101;-74
2023/07/23 10:17:23;;;;;;;14.82;12.88;;;;;;;;;;4992969;28;20105;-74
2023/07/23 10:19:51;;;;;;;15.27;13.27;;;;;;;;;;4993040;28;20018;-74
2023/07/23 10:22:17;;;;;;;15.05;11.90;;;;;;;;;;4992771;28;20030;-74
2023/07/23 10:24:43;;;;;;;14.23;12.50;;;;;;;;;;5009834;28;20030;-74
2023/07/23 10:27:16;;;;;;;13.88;11.95;;;;;;;;;;5012109;28;20112;-75
2023/07/23 10:29:42;;;;;;;16.17;13.05;;;;;;;;;;5012807;28;20056;-75
2023/07/23 10:32:22;;;;;;;13.93;11.48;;;;;;;;;;5012259;28;20033;-75
2023/07/23 10:34:48;;;;;;;16.70;13.15;;;;;;;;;;5012301;28;20516;-75
2023/07/23 10:37:18;;;;;;;14.95;12.95;;;;;;;;;;5012363;28;20073;-75
2023/07/23 10:39:44;;;;;;;;;;;;;;;;;;5013164;28;20168;-75
2023/07/23 10:42:10;;;;;;;12.95;11.43;;;;;;;;;;5012410;28;19996;-75
2023/07/23 10:44:39;;;;;;;13.23;11.82;;;;;;;;;;5011647;28;20026;-75
2023/07/23 10:47:24;;;;;;;16.60;12.50;;;;;;;;;;4992635;28;20157;-75
2023/07/23 10:50:09;;;;;;;14.80;11.75;;;;;;;;;;4992710;28;20038;-75
2023/07/23 10:52:37;;;;;;;13.80;12.25;;;;;;;;;;4992787;28;20038;-75
2023/07/23 10:55:04;;;;;;;15.10;11.20;;;;;;;;;;4992680;28;20080;-74
2023/07/23 10:57:31;;;;;;;15.48;12.60;;;;;;;;;;4992622;28;20037;-75
2023/07/23 10:59:57;;;;;;;15.90;13.65;;;;;;;;;;4992579;28;20133;-75
2023/07/23 11:02:26;;;;;;;20.83;14.65;;;;;;;;;;4992482;28;20117;-74
2023/07/23 11:04:56;;;;;;;16.38;12.88;;;;;;;;;;4992544;28;20458;-75
2023/07/23 11:07:26;;;;;;;14.52;11.88;;;;;;;;;;4992691;28;20019;-75
2023/07/23 11:09:54;;;;;;;15.13;13.48;;;;;;;;;;4994537;28;20504;-75
2023/07/23 11:12:22;;;;;;;15.93;12.82;;;;;;;;;;4996203;28;20026;-75
2023/07/23 11:14:48;;;;;;;15.60;12.98;;;;;;;;;;4996171;28;20027;-75
2023/07/23 11:17:14;;;;;;;16.17;12.98;;;;;;;;;;4996454;28;20053;-75
2023/07/23 11:19:45;;;;;;;14.05;12.38;;;;;;;;;;4996094;28;20030;-75
2023/07/23 11:22:15;;;;;;;14.90;11.88;;;;;;;;;;4996151;28;20029;-74
2023/07/23 11:24:41;;;;;;;13.05;11.50;;;;;;;;;;4996035;28;20034;-75
2023/07/23 11:27:10;;;;;;;13.88;11.05;;;;;;;;;;4994777;28;20050;-75
2023/07/23 11:29:36;;;;;;;13.07;11.32;;;;;;;;;;4996145;28;20380;-74
2023/07/23 11:32:09;;;;;;;12.68;10.27;;;;;;;;;;4996001;28;20374;-75
2023/07/23 11:34:36;;;;;;;12.25;9.70;;;;;;;;;;4995894;28;20737;-75
2023/07/23 11:37:02;;;;;;;14.77;11.48;;;;;;;;;;4995781;28;20022;-74
2023/07/23 11:39:28;;;;;;;12.65;9.48;;;;;;;;;;4995871;28;20110;-75
2023/07/23 11:41:54;;;;;;;13.77;10.43;;;;;;;;;;4995871;28;20030;-75
2023/07/23 11:44:20;;;;;;;11.27;9.65;;;;;;;;;;4995684;28;20026;-75
2023/07/23 11:46:47;;;;;;;11.70;9.63;;;;;;;;;;4995680;28;20461;-75
2023/07/23 11:49:14;;;;;;;10.98;9.82;;;;;;;;;;4995510;28;20057;-75
2023/07/23 11:51:40;;;;;;;10.85;9.75;;;;;;;;;;4995245;28;20058;-75
2023/07/23 11:54:08;;;;;;;9.32;8.32;;;;;;;;;;4995129;28;20018;-75
2023/07/23 11:56:35;;;;;;;12.25;9.30;;;;;;;;;;4995688;28;20023;-75
2023/07/23 11:59:03;;;;;;;11.00;9.30;;;;;;;;;;4995677;28;20027;-75
2023/07/23 12:01:29;;;;;;;10.63;9.13;;;;;;;;;;4995385;28;20033;-75
2023/07/23 12:03:58;;;;;;;9.05;8.10;;;;;;;;;;4995367;28;20018;-75
2023/07/23 12:06:24;;;;;;;8.63;7.50;;;;;;;;;;4995268;28;20521;-75
2023/07/23 12:08:51;;;;;;;20.88;13.35;;;;;;;;;;4995068;28;20662;-75
2023/07/23 12:11:17;;;;;;;18.08;12.13;;;;;;;;;;4995204;28;20042;-75
2023/07/23 12:13:50;;;;;;;10.07;7.47;;;;;;;;;;4995175;28;20035;-75
2023/07/23 12:16:33;;;;;;;8.13;6.88;;;;;;;;;;4995095;28;20030;-75
2023/07/23 12:19:03;;;;;;;10.10;7.30;;;;;;;;;;4994834;28;20031;-74
2023/07/23 12:21:29;;;;;;;8.98;6.60;;;;;;;;;;4993834;28;20033;-75
2023/07/23 12:23:55;;;;;;;9.75;5.97;;;;;;;;;;4994794;28;20478;-75
2023/07/23 12:26:21;;;;;;;7.60;6.18;;;;;;;;;;4994769;28;20105;-75
2023/07/23 12:28:47;;;;;;;6.80;4.78;;;;;;;;;;4994317;28;20026;-75
2023/07/23 12:31:13;;;;;;;9.75;5.60;;;;;;;;;;4994857;28;20042;-75
2023/07/23 12:33:40;;;;;;;9.05;5.32;;;;;;;;;;4994644;28;20030;-75
2023/07/23 12:36:06;;;;;;;11.60;5.93;;;;;;;;;;4994798;28;20642;-75
2023/07/23 12:38:32;;;;;;;6.75;4.70;;;;;;;;;;4994096;28;20034;-75
2023/07/23 12:40:58;;;;;;;7.93;5.03;;;;;;;;;;4993230;28;20035;-75
2023/07/23 12:43:24;;;;;;;8.00;5.35;;;;;;;;;;4993132;28;20401;-75
2023/07/23 12:45:50;;;;;;;8.55;4.82;;;;;;;;;;4994047;28;20026;-75
2023/07/23 12:48:16;;;;;;;6.05;4.35;;;;;;;;;;4993682;28;20456;-74
2023/07/23 12:50:42;;;;;;;7.00;3.63;;;;;;;;;;4993230;28;20041;-75
2023/07/23 12:53:08;;;;;;;7.10;3.55;;;;;;;;;;4993282;28;20066;-75
2023/07/23 12:55:34;;;;;;;6.90;4.72;;;;;;;;;;4994363;28;20022;-75
2023/07/23 12:58:00;;;;;;;7.18;5.30;;;;;;;;;;4994263;28;20026;-75
2023/07/23 13:00:26;;;;;;;6.35;4.78;;;;;;;;;;4994232;28;20473;-75
2023/07/23 13:02:52;;;;;;;8.07;4.38;;;;;;;;;;4994173;28;20026;-75
2023/07/23 13:05:19;;;;;;;7.90;4.13;;;;;;;;;;4994210;28;20538;-75
2023/07/23 13:07:45;;;;;;;5.82;3.92;;;;;;;;;;4994278;28;20097;-75
2023/07/23 13:10:11;;;;;;;9.55;4.72;;;;;;;;;;4994121;28;20461;-75
2023/07/23 13:12:37;;;;;;;11.63;5.07;;;;;;;;;;4994028;28;20027;-75
2023/07/23 13:15:04;;;;;;;8.40;5.20;;;;;;;;;;4993887;28;20022;-75
2023/07/23 13:17:31;;;;;;;7.32;4.70;;;;;;;;;;4993980;28;20026;-75
2023/07/23 13:19:57;;;;;;;8.38;5.03;;;;;;;;;;4993880;28;20487;-75
2023/07/23 13:22:23;;;;;;;9.80;5.72;;;;;;;;;;4993807;28;20109;-75
2023/07/23 13:24:49;;;;;;;8.65;4.35;;;;;;;;;;4993713;28;20362;-75
2023/07/23 13:27:15;;;;;;;7.43;3.92;;;;;;;;;;4993469;28;20108;-75
2023/07/23 13:29:41;;;;;;;7.85;3.60;;;;;;;;;;4993656;28;20381;-75
2023/07/23 13:32:07;;;;;;;8.38;3.40;;;;;;;;;;4993671;28;20031;-75
2023/07/23 13:34:33;;;;;;;5.40;2.78;;;;;;;;;;4993095;28;20026;-75
2023/07/23 13:36:59;;;;;;;8.48;3.70;;;;;;;;;;4993618;28;20049;-75
2023/07/23 13:39:25;;;;;;;4.30;2.50;;;;;;;;;;4993575;28;20038;-75
2023/07/23 13:41:51;;;;;;;7.55;3.10;;;;;;;;;;4993543;28;20034;-75
2023/07/23 13:44:17;;;;;;;7.25;3.28;;;;;;;;;;4993435;28;20375;-75
2023/07/23 13:46:43;;;;;;;6.63;2.92;;;;;;;;;;4993465;28;20057;-75
2023/07/23 13:49:09;;;;;;;9.35;3.20;;;;;;;;;;4993313;28;20089;-75
2023/07/23 13:51:35;;;;;;;9.18;3.03;;;;;;;;;;4993391;28;20069;-75
2023/07/23 13:54:01;;;;;;;6.63;3.00;;;;;;;;;;4993320;28;20513;-75
2023/07/23 13:56:27;;;;;;;8.45;3.15;;;;;;;;;;4993300;28;20026;-75
2023/07/23 13:58:55;;;;;;;7.45;3.17;;;;;;;;;;4993272;28;20033;-75
2023/07/23 14:01:21;;;;;;;8.05;2.88;;;;;;;;;;4993703;28;20101;-75
2023/07/23 14:03:47;;;;;;;9.10;2.72;;;;;;;;;;4992886;28;20101;-75
2023/07/23 14:06:13;;;;;;;7.70;2.65;;;;;;;;;;4993159;28;20516;-75
2023/07/23 14:08:39;;;;;;;8.30;3.38;;;;;;;;;;4993354;28;20113;-75
2023/07/23 14:11:05;;;;;;;8.07;3.10;;;;;;;;;;4993288;28;20038;-75
2023/07/23 14:13:31;;;;;;;11.10;3.63;;;;;;;;;;4993119;28;20049;-75
2023/07/23 14:15:57;;;;;;;7.82;2.95;;;;;;;;;;4993000;28;20030;-75
2023/07/23 14:18:23;;;;;;;8.77;3.10;;;;;;;;;;4993035;28;20042;-75
2023/07/23 14:20:56;;;;;;;6.95;3.20;;;;;;;;;;4993030;28;20026;-75
2023/07/23 14:23:22;;;;;;;7.35;3.10;;;;;;;;;;4992957;28;20034;-75
2023/07/23 14:25:48;;;;;;;8.00;2.90;;;;;;;;;;4992919;28;20029;-75
2023/07/23 14:28:14;;;;;;;6.13;2.63;;;;;;;;;;4992635;28;20160;-75
2023/07/23 14:30:40;;;;;;;8.27;3.10;;;;;;;;;;4991833;28;20138;-75